createdAt,value
2017-07-04T00:00:23.925Z,-1.1
2017-07-04T00:01:23.265Z,-1.1
2017-07-04T00:03:22.500Z,-1.1
2017-07-04T00:04:21.472Z,-1
2017-07-04T00:06:20.061Z,-1
2017-07-04T00:07:19.147Z,-1
2017-07-04T00:08:18.993Z,-1
2017-07-04T00:09:18.336Z,-1
2017-07-04T00:10:17.422Z,-1
2017-07-04T00:11:16.763Z,-1
2017-07-04T00:12:16.222Z,-1
2017-07-04T00:13:15.570Z,-1
2017-07-04T00:14:14.533Z,-1
2017-07-04T00:15:14.383Z,-1
2017-07-04T00:15:44.675Z,-1
2017-07-04T00:16:14.578Z,-1
2017-07-04T00:16:44.985Z,-1
2017-07-04T00:17:15.519Z,-1
2017-07-04T00:17:46.309Z,-1
2017-07-04T00:18:16.336Z,-1
2017-07-04T00:19:11.645Z,-1
2017-07-04T00:20:10.596Z,-1
2017-07-04T00:21:09.808Z,-1
2017-07-04T00:22:09.284Z,-1.1
2017-07-04T00:23:08.499Z,-1
2017-07-04T00:24:07.839Z,-1.1
2017-07-04T00:25:07.568Z,-1.1
2017-07-04T00:26:06.916Z,-1.1
2017-07-04T00:27:06.273Z,-1.1
2017-07-04T00:28:05.363Z,-1.1
2017-07-04T00:29:04.581Z,-1.1
2017-07-04T00:30:03.914Z,-1.1
2017-07-04T00:31:03.001Z,-1
2017-07-04T00:32:02.594Z,-1.1
2017-07-04T00:33:01.680Z,-1.1
2017-07-04T00:34:01.390Z,-1.1
2017-07-04T00:35:00.776Z,-1.1
2017-07-04T00:35:59.691Z,-1
2017-07-04T00:36:59.659Z,-1
2017-07-04T00:37:58.945Z,-1
2017-07-04T00:38:58.291Z,-1.1
2017-07-04T00:39:56.760Z,-1
2017-07-04T00:40:56.597Z,-1.1
2017-07-04T00:41:55.559Z,-1.1
2017-07-04T00:42:55.281Z,-1.1
2017-07-04T00:43:54.629Z,-1
2017-07-04T00:44:53.725Z,-1.1
2017-07-04T00:45:52.944Z,-1.1
2017-07-04T00:46:52.658Z,-1.1
2017-07-04T00:47:51.858Z,-1.1
2017-07-04T00:48:51.079Z,-1.1
2017-07-04T00:49:50.547Z,-1
2017-07-04T00:50:49.902Z,-1
2017-07-04T00:51:48.992Z,-1
2017-07-04T00:52:19.268Z,-1
2017-07-04T00:52:49.917Z,-1
2017-07-04T00:53:20.615Z,-1
2017-07-04T00:54:47.008Z,-1
2017-07-04T00:55:46.351Z,-1
2017-07-04T00:56:45.692Z,-1
2017-07-04T00:57:44.783Z,-1
2017-07-04T00:58:44.634Z,-1
2017-07-04T00:59:43.487Z,-1
2017-07-04T01:00:42.843Z,-1
2017-07-04T01:01:42.188Z,-1
2017-07-04T01:02:42.022Z,-0.8
2017-07-04T01:03:40.978Z,-0.7
2017-07-04T01:05:39.839Z,-0.8
2017-07-04T01:06:38.928Z,-0.8
2017-07-04T01:08:37.646Z,-0.8
2017-07-04T01:09:36.851Z,-0.7
2017-07-04T01:10:36.332Z,-0.6
2017-07-04T01:11:35.564Z,-0.8
2017-07-04T01:12:06.223Z,-0.8
2017-07-04T01:13:34.191Z,-0.7
2017-07-04T01:14:33.275Z,-0.7
2017-07-04T01:15:32.739Z,-0.7
2017-07-04T01:17:31.351Z,-0.8
2017-07-04T01:18:30.441Z,-0.8
2017-07-04T01:19:30.283Z,-0.7
2017-07-04T01:20:29.633Z,-0.6
2017-07-04T01:21:28.844Z,-0.7
2017-07-04T01:21:59.365Z,-0.7
2017-07-04T01:22:29.630Z,-0.7
2017-07-04T01:23:00.276Z,-0.7
2017-07-04T01:23:30.807Z,-0.7
2017-07-04T01:24:01.330Z,-0.7
2017-07-04T01:25:25.956Z,-0.6
2017-07-04T01:26:25.174Z,-0.7
2017-07-04T01:27:24.891Z,-0.7
2017-07-04T01:28:24.227Z,-0.6
2017-07-04T01:29:23.200Z,-0.7
2017-07-04T01:30:22.171Z,-0.8
2017-07-04T01:31:22.460Z,-0.8
2017-07-04T01:32:21.432Z,-0.8
2017-07-04T01:33:20.527Z,-0.8
2017-07-04T01:34:20.122Z,-0.8
2017-07-04T01:35:18.830Z,-0.7
2017-07-04T01:36:18.416Z,-0.7
2017-07-04T01:37:17.639Z,-0.8
2017-07-04T01:38:17.487Z,-0.7
2017-07-04T01:39:16.709Z,-0.8
2017-07-04T01:40:15.925Z,-0.9
2017-07-04T01:41:15.263Z,-0.9
2017-07-04T01:42:14.472Z,-0.9
2017-07-04T01:43:13.564Z,-0.7
2017-07-04T01:44:13.162Z,-0.6
2017-07-04T01:45:12.273Z,-0.7
2017-07-04T01:46:11.368Z,-0.8
2017-07-04T01:47:11.198Z,-0.8
2017-07-04T01:48:11.240Z,-0.9
2017-07-04T01:49:09.586Z,-1
2017-07-04T01:50:08.801Z,-1
2017-07-04T01:51:07.819Z,-1
2017-07-04T01:52:07.415Z,-1
2017-07-04T01:53:06.505Z,-1
2017-07-04T01:54:06.104Z,-1
2017-07-04T01:55:05.203Z,-1
2017-07-04T01:56:04.791Z,-0.8
2017-07-04T01:57:04.575Z,-0.9
2017-07-04T01:58:03.419Z,-0.6
2017-07-04T01:59:02.517Z,-0.4
2017-07-04T02:00:02.121Z,-0.3
2017-07-04T02:01:01.339Z,-0.3
2017-07-04T02:02:00.469Z,-0.1
2017-07-04T02:03:00.141Z,0
2017-07-04T02:03:58.855Z,0.1
2017-07-04T02:05:57.973Z,0.2
2017-07-04T02:06:57.565Z,0.1
2017-07-04T02:07:56.283Z,0.2
2017-07-04T02:08:55.373Z,0.1
2017-07-04T02:09:55.213Z,0
2017-07-04T02:10:54.688Z,0
2017-07-04T02:11:53.410Z,-0.2
2017-07-04T02:12:53.261Z,-0.2
2017-07-04T02:13:51.966Z,-0.2
2017-07-04T02:14:51.177Z,-0.3
2017-07-04T02:15:50.813Z,-0.3
2017-07-04T02:16:21.051Z,-0.3
2017-07-04T02:16:51.568Z,-0.4
2017-07-04T02:17:49.148Z,-0.5
2017-07-04T02:18:48.863Z,-0.5
2017-07-04T02:19:48.218Z,-0.6
2017-07-04T02:20:47.431Z,-0.7
2017-07-04T02:21:46.644Z,-0.6
2017-07-04T02:22:45.867Z,-0.6
2017-07-04T02:23:45.084Z,-0.6
2017-07-04T02:24:44.568Z,-0.7
2017-07-04T02:25:44.162Z,-0.8
2017-07-04T02:26:42.746Z,-0.9
2017-07-04T02:28:42.050Z,-0.9
2017-07-04T02:29:40.751Z,-0.9
2017-07-04T02:30:40.214Z,-0.9
2017-07-04T02:31:39.436Z,-0.9
2017-07-04T02:32:38.892Z,-0.9
2017-07-04T02:33:37.973Z,-0.9
2017-07-04T02:34:38.069Z,-0.9
2017-07-04T02:35:37.027Z,-0.9
2017-07-04T02:36:36.355Z,-0.9
2017-07-04T02:37:35.186Z,-0.9
2017-07-04T02:38:34.147Z,-1
2017-07-04T02:39:33.619Z,-1
2017-07-04T02:40:33.081Z,-1
2017-07-04T02:41:32.170Z,-1
2017-07-04T02:42:31.637Z,-1.1
2017-07-04T02:43:30.720Z,-0.9
2017-07-04T02:44:30.570Z,-1
2017-07-04T02:45:29.788Z,-1
2017-07-04T02:46:29.134Z,-1.1
2017-07-04T02:47:28.360Z,-1.1
2017-07-04T02:48:27.828Z,-1.1
2017-07-04T02:49:26.545Z,-1
2017-07-04T02:50:26.020Z,-1
2017-07-04T02:51:25.109Z,-1.2
2017-07-04T02:52:24.835Z,-1.2
2017-07-04T02:53:23.943Z,-1.2
2017-07-04T02:54:23.233Z,-1.2
2017-07-04T02:55:22.203Z,-1.2
2017-07-04T02:56:21.795Z,-1.2
2017-07-04T02:57:20.894Z,-1.2
2017-07-04T02:58:20.241Z,-1.2
2017-07-04T02:59:19.586Z,-1.2
2017-07-04T03:00:18.933Z,-1.2
2017-07-04T03:01:18.147Z,-1
2017-07-04T03:02:17.369Z,-1
2017-07-04T03:03:16.589Z,-1.1
2017-07-04T03:04:16.066Z,-1.1
2017-07-04T03:05:15.160Z,-1.1
2017-07-04T03:06:14.697Z,-1.1
2017-07-04T03:07:13.909Z,-1.1
2017-07-04T03:08:12.954Z,-1.1
2017-07-04T03:09:12.428Z,-1.1
2017-07-04T03:10:11.778Z,-1
2017-07-04T03:11:11.009Z,-1
2017-07-04T03:12:10.102Z,-1.1
2017-07-04T03:13:09.705Z,-1.1
2017-07-04T03:14:08.929Z,-1.1
2017-07-04T03:15:08.384Z,-1.1
2017-07-04T03:15:39.254Z,-1.1
2017-07-04T03:17:07.021Z,-1
2017-07-04T03:18:05.998Z,-1.1
2017-07-04T03:19:05.231Z,-1
2017-07-04T03:20:04.322Z,-1
2017-07-04T03:21:04.042Z,-1
2017-07-04T03:22:03.403Z,-1
2017-07-04T03:23:02.369Z,-1
2017-07-04T03:24:01.655Z,-1
2017-07-04T03:25:00.760Z,-0.9
2017-07-04T03:26:00.230Z,-0.9
2017-07-04T03:26:30.635Z,-0.9
2017-07-04T03:27:00.782Z,-0.9
2017-07-04T03:27:59.262Z,-0.9
2017-07-04T03:28:57.966Z,-0.9
2017-07-04T03:29:57.326Z,-0.9
2017-07-04T03:30:56.545Z,-1
2017-07-04T03:31:56.149Z,-1
2017-07-04T03:32:55.237Z,-1
2017-07-04T03:33:54.788Z,-1
2017-07-04T03:34:54.143Z,-1
2017-07-04T03:35:53.359Z,-1.1
2017-07-04T03:36:52.581Z,-1
2017-07-04T03:37:51.544Z,-0.9
2017-07-04T03:38:51.281Z,-0.9
2017-07-04T03:39:50.635Z,-0.9
2017-07-04T03:40:50.058Z,-0.9
2017-07-04T03:41:48.912Z,-0.9
2017-07-04T03:42:48.257Z,-1
2017-07-04T03:44:46.481Z,-1
2017-07-04T03:46:44.971Z,-1.1
2017-07-04T03:47:44.571Z,-1.1
2017-07-04T03:48:44.181Z,-1.1
2017-07-04T03:49:42.768Z,-1.1
2017-07-04T03:50:42.362Z,-1
2017-07-04T03:51:41.580Z,-1
2017-07-04T03:52:40.799Z,-0.9
2017-07-04T03:53:40.152Z,-0.9
2017-07-04T03:54:39.374Z,-0.9
2017-07-04T03:56:38.245Z,-0.9
2017-07-04T03:58:36.982Z,-0.9
2017-07-04T03:59:36.214Z,-1
2017-07-04T04:00:35.433Z,-0.9
2017-07-04T04:01:34.014Z,-0.9
2017-07-04T04:02:33.493Z,-0.9
2017-07-04T04:03:33.107Z,-0.9
2017-07-04T04:04:32.088Z,-1
2017-07-04T04:05:31.198Z,-1
2017-07-04T04:06:30.808Z,-1
2017-07-04T04:07:30.024Z,-1
2017-07-04T04:08:29.376Z,-1
2017-07-04T04:09:28.596Z,-1
2017-07-04T04:10:27.825Z,-1
2017-07-04T04:11:27.552Z,-0.9
2017-07-04T04:12:26.917Z,-0.9
2017-07-04T04:13:25.897Z,-0.9
2017-07-04T04:14:25.251Z,-0.9
2017-07-04T04:15:24.345Z,-0.9
2017-07-04T04:16:23.444Z,-1
2017-07-04T04:17:23.171Z,-0.9
2017-07-04T04:18:22.155Z,-1
2017-07-04T04:19:21.246Z,-0.8
2017-07-04T04:20:20.840Z,-0.8
2017-07-04T04:20:51.384Z,-0.8
2017-07-04T04:21:21.796Z,-0.9
2017-07-04T04:22:19.265Z,-0.9
2017-07-04T04:23:19.078Z,-0.9
2017-07-04T04:24:17.679Z,-0.9
2017-07-04T04:25:17.150Z,-0.9
2017-07-04T04:26:16.244Z,-0.9
2017-07-04T04:27:15.849Z,-0.9
2017-07-04T04:28:14.935Z,-0.9
2017-07-04T04:29:14.914Z,-0.9
2017-07-04T04:30:14.010Z,-0.9
2017-07-04T04:31:12.593Z,-0.9
2017-07-04T04:32:12.194Z,-0.9
2017-07-04T04:33:11.167Z,-0.9
2017-07-04T04:35:10.409Z,-1
2017-07-04T04:36:09.619Z,-0.9
2017-07-04T04:37:08.842Z,-0.9
2017-07-04T04:38:08.186Z,-1
2017-07-04T04:39:07.141Z,-1
2017-07-04T04:40:06.366Z,-1
2017-07-04T04:41:05.467Z,-1.1
2017-07-04T04:42:04.940Z,-1
2017-07-04T04:43:04.166Z,-1.1
2017-07-04T04:44:03.389Z,-1.1
2017-07-04T04:45:03.112Z,-1.3
2017-07-04T04:46:02.203Z,-1.2
2017-07-04T04:47:01.673Z,-1.2
2017-07-04T04:48:00.630Z,-1.2
2017-07-04T04:48:59.989Z,-1.2
2017-07-04T04:49:59.218Z,-1.1
2017-07-04T04:50:58.332Z,-1
2017-07-04T04:51:57.921Z,-1
2017-07-04T04:52:57.022Z,-0.9
2017-07-04T04:53:27.683Z,-0.9
2017-07-04T04:53:58.211Z,-0.9
2017-07-04T04:54:56.304Z,-0.8
2017-07-04T04:55:54.792Z,-1
2017-07-04T04:56:54.258Z,-0.9
2017-07-04T04:57:53.355Z,-1
2017-07-04T04:58:53.203Z,-1.2
2017-07-04T04:59:51.930Z,-1.2
2017-07-04T05:00:51.525Z,-1.2
2017-07-04T05:01:22.051Z,-1.2
2017-07-04T05:01:52.331Z,-1.2
2017-07-04T05:02:23.124Z,-1.2
2017-07-04T05:02:53.287Z,-1.1
2017-07-04T05:03:49.355Z,-1.3
2017-07-04T05:04:48.455Z,-1.3
2017-07-04T05:06:47.063Z,-1.2
2017-07-04T05:07:46.026Z,-1
2017-07-04T05:08:45.883Z,-1.1
2017-07-04T05:09:45.497Z,-1.1
2017-07-04T05:10:44.335Z,-1.1
2017-07-04T05:11:43.812Z,-1.2
2017-07-04T05:12:42.534Z,-1.1
2017-07-04T05:13:42.379Z,-1.3
2017-07-04T05:14:13.041Z,-1.3
2017-07-04T05:14:43.080Z,-1.2
2017-07-04T05:15:13.614Z,-1.2
2017-07-04T05:15:44.034Z,-1.2
2017-07-04T05:16:40.239Z,-1.3
2017-07-04T05:17:39.715Z,-1.3
2017-07-04T05:18:39.771Z,-1.3
2017-07-04T05:19:38.126Z,-1.3
2017-07-04T05:20:37.029Z,-1.3
2017-07-04T05:21:36.263Z,-1.3
2017-07-04T05:22:35.615Z,-1.3
2017-07-04T05:23:34.592Z,-1.4
2017-07-04T05:24:34.185Z,-1.5
2017-07-04T05:25:33.273Z,-1.5
2017-07-04T05:26:33.118Z,-1.5
2017-07-04T05:27:32.093Z,-1.5
2017-07-04T05:28:31.443Z,-1.6
2017-07-04T05:29:30.801Z,-1.5
2017-07-04T05:30:30.029Z,-1.6
2017-07-04T05:31:29.004Z,-1.6
2017-07-04T05:32:28.991Z,-1.7
2017-07-04T05:32:59.273Z,-1.7
2017-07-04T05:33:29.567Z,-1.7
2017-07-04T05:34:00.224Z,-1.7
2017-07-04T05:35:26.496Z,-1.7
2017-07-04T05:36:25.706Z,-1.7
2017-07-04T05:38:24.184Z,-1.8
2017-07-04T05:39:23.541Z,-2
2017-07-04T05:40:22.763Z,-2.1
2017-07-04T05:41:22.487Z,-2.2
2017-07-04T05:42:21.836Z,-2.3
2017-07-04T05:43:21.355Z,-2.3
2017-07-04T05:44:20.192Z,-2.5
2017-07-04T05:45:19.540Z,-2.5
2017-07-04T05:46:18.770Z,-2.6
2017-07-04T05:47:17.993Z,-2.8
2017-07-04T05:48:17.221Z,-2.9
2017-07-04T05:49:16.569Z,-2.9
2017-07-04T05:50:15.548Z,-2.9
2017-07-04T05:51:15.484Z,-2.9
2017-07-04T05:52:14.457Z,-3.1
2017-07-04T05:53:13.700Z,-2.9
2017-07-04T05:54:13.057Z,-2.9
2017-07-04T05:55:12.863Z,-2.8
2017-07-04T05:56:11.705Z,-2.8
2017-07-04T05:57:11.762Z,-2.8
2017-07-04T05:58:09.975Z,-2.7
2017-07-04T05:59:09.827Z,-2.7
2017-07-04T06:00:08.933Z,-2.8
2017-07-04T06:01:07.941Z,-2.8
2017-07-04T06:02:07.888Z,-2.6
2017-07-04T06:03:06.997Z,-2.7
2017-07-04T06:04:06.164Z,-2.7
2017-07-04T06:05:06.079Z,-2.7
2017-07-04T06:06:04.288Z,-2.7
2017-07-04T06:07:04.124Z,-2.9
2017-07-04T06:08:03.091Z,-3
2017-07-04T06:09:02.470Z,-3.2
2017-07-04T06:10:01.453Z,-3
2017-07-04T06:11:00.932Z,-3
2017-07-04T06:12:00.272Z,-3
2017-07-04T06:12:59.491Z,-2.9
2017-07-04T06:13:58.967Z,-3
2017-07-04T06:14:58.327Z,-3
2017-07-04T06:15:58.065Z,-2.9
2017-07-04T06:16:57.050Z,-3.1
2017-07-04T06:17:56.406Z,-3.2
2017-07-04T06:18:55.505Z,-3.2
2017-07-04T06:19:55.104Z,-3.2
2017-07-04T06:20:53.947Z,-3.4
2017-07-04T06:21:53.168Z,-3.5
2017-07-04T06:22:52.636Z,-3.4
2017-07-04T06:23:51.676Z,-3.5
2017-07-04T06:24:51.397Z,-3.4
2017-07-04T06:25:50.505Z,-3.6
2017-07-04T06:26:49.589Z,-3.8
2017-07-04T06:27:49.433Z,-3.8
2017-07-04T06:28:48.529Z,-3.8
2017-07-04T06:29:47.496Z,-3.8
2017-07-04T06:30:47.793Z,-3.9
2017-07-04T06:31:46.552Z,-4
2017-07-04T06:32:45.637Z,-4.1
2017-07-04T06:33:45.096Z,-4.1
2017-07-04T06:34:44.189Z,-4
2017-07-04T06:35:43.544Z,-4
2017-07-04T06:36:42.767Z,-3.9
2017-07-04T06:37:41.992Z,-3.9
2017-07-04T06:38:41.464Z,-3.8
2017-07-04T06:39:41.517Z,-3.9
2017-07-04T06:40:10.916Z,-3.9
2017-07-04T06:40:41.451Z,-3.9
2017-07-04T06:41:11.863Z,-3.9
2017-07-04T06:41:42.393Z,-4.1
2017-07-04T06:42:38.605Z,-4
2017-07-04T06:43:37.714Z,-4.3
2017-07-04T06:44:37.444Z,-4.2
2017-07-04T06:45:36.792Z,-4.1
2017-07-04T06:46:35.764Z,-4.1
2017-07-04T06:47:35.813Z,-3.8
2017-07-04T06:48:34.659Z,-3.8
2017-07-04T06:49:33.766Z,-3.7
2017-07-04T06:50:32.995Z,-3.7
2017-07-04T06:51:32.600Z,-3.6
2017-07-04T06:52:31.817Z,-3.5
2017-07-04T06:53:30.915Z,-3.3
2017-07-04T06:54:30.133Z,-3.2
2017-07-04T06:55:29.735Z,-3.3
2017-07-04T06:56:29.202Z,-3.4
2017-07-04T06:57:28.438Z,-3.5
2017-07-04T06:58:28.039Z,-3.5
2017-07-04T06:59:27.015Z,-3.4
2017-07-04T07:00:26.111Z,-3.2
2017-07-04T07:01:25.329Z,-3.2
2017-07-04T07:02:25.067Z,-3.5
2017-07-04T07:03:24.539Z,-3.5
2017-07-04T07:04:23.635Z,-3.5
2017-07-04T07:05:22.858Z,-3.5
2017-07-04T07:06:21.967Z,-3.5
2017-07-04T07:07:21.571Z,-3.2
2017-07-04T07:09:20.056Z,-3
2017-07-04T07:10:19.267Z,-2.9
2017-07-04T07:11:18.867Z,-3
2017-07-04T07:12:18.285Z,-2.9
2017-07-04T07:13:17.771Z,-3
2017-07-04T07:14:17.248Z,-3
2017-07-04T07:15:16.091Z,-3
2017-07-04T07:16:15.572Z,-3
2017-07-04T07:17:15.162Z,-3.2
2017-07-04T07:18:14.009Z,-3.2
2017-07-04T07:19:13.234Z,-3.1
2017-07-04T07:20:12.457Z,-2.9
2017-07-04T07:20:43.120Z,-2.9
2017-07-04T07:21:13.527Z,-2.9
2017-07-04T07:21:43.814Z,-2.9
2017-07-04T07:22:14.357Z,-2.9
2017-07-04T07:23:10.692Z,-2.9
2017-07-04T07:24:09.983Z,-2.9
2017-07-04T07:25:09.209Z,-2.8
2017-07-04T07:26:08.498Z,-2.8
2017-07-04T07:27:07.723Z,-2.9
2017-07-04T07:28:07.445Z,-2.7
2017-07-04T07:29:06.415Z,-2.6
2017-07-04T07:30:05.895Z,-2.4
2017-07-04T07:31:05.370Z,-2.4
2017-07-04T07:32:04.463Z,-2.4
2017-07-04T07:32:35.126Z,-2.4
2017-07-04T07:33:05.659Z,-2.2
2017-07-04T07:33:36.330Z,-2.2
2017-07-04T07:35:02.980Z,-2.1
2017-07-04T07:36:01.703Z,-2.1
2017-07-04T07:37:01.313Z,-2.1
2017-07-04T07:39:00.312Z,-2.2
2017-07-04T07:39:59.036Z,-2.1
2017-07-04T07:40:58.260Z,-2.1
2017-07-04T07:41:58.114Z,-2.1
2017-07-04T07:42:57.334Z,-1.9
2017-07-04T07:43:56.818Z,-1.9
2017-07-04T07:44:55.535Z,-2
2017-07-04T07:45:55.010Z,-2.1
2017-07-04T07:46:54.619Z,-2.1
2017-07-04T07:47:53.967Z,-2.2
2017-07-04T07:48:53.193Z,-2.3
2017-07-04T07:49:52.287Z,-2.3
2017-07-04T07:50:51.766Z,-2.4
2017-07-04T07:51:51.028Z,-2.4
2017-07-04T07:52:50.835Z,-2.6
2017-07-04T07:53:21.115Z,-2.6
2017-07-04T07:53:51.526Z,-2.7
2017-07-04T07:54:49.106Z,-2.8
2017-07-04T07:55:48.328Z,-2.8
2017-07-04T07:56:47.804Z,-2.9
2017-07-04T07:57:47.159Z,-2.8
2017-07-04T07:58:46.761Z,-2.7
2017-07-04T07:59:45.989Z,-2.9
2017-07-04T08:00:45.715Z,-3
2017-07-04T08:01:44.550Z,-2.9
2017-07-04T08:02:44.016Z,-2.9
2017-07-04T08:03:43.613Z,-2.8
2017-07-04T08:04:42.921Z,-2.9
2017-07-04T08:05:41.649Z,-2.8
2017-07-04T08:06:41.119Z,-2.8
2017-07-04T08:07:40.587Z,-2.8
2017-07-04T08:08:40.188Z,-2.8
2017-07-04T08:09:39.039Z,-3
2017-07-04T08:10:38.876Z,-3.1
2017-07-04T08:11:37.599Z,-3.2
2017-07-04T08:12:37.316Z,-3.1
2017-07-04T08:13:36.662Z,-3.2
2017-07-04T08:14:36.130Z,-3.3
2017-07-04T08:15:35.598Z,-3.3
2017-07-04T08:16:34.809Z,-3.4
2017-07-04T08:17:34.090Z,-3.2
2017-07-04T08:18:33.311Z,-3
2017-07-04T08:19:32.538Z,-2.9
2017-07-04T08:20:31.646Z,-2.9
2017-07-04T08:21:31.493Z,-3
2017-07-04T08:22:30.591Z,-2.9
2017-07-04T08:23:29.943Z,-2.9
2017-07-04T08:24:29.411Z,-2.7
2017-07-04T08:25:28.760Z,-2.6
2017-07-04T08:26:27.980Z,-2.6
2017-07-04T08:27:27.319Z,-2.3
2017-07-04T08:28:26.534Z,-2.3
2017-07-04T08:29:26.381Z,-2.3
2017-07-04T08:31:24.873Z,-2.3
2017-07-04T08:32:24.336Z,-2.5
2017-07-04T08:33:23.941Z,-2.6
2017-07-04T08:35:22.047Z,-2.5
2017-07-04T08:36:21.144Z,-2.5
2017-07-04T08:37:20.993Z,-2.6
2017-07-04T08:38:20.092Z,-2.6
2017-07-04T08:39:19.310Z,-2.6
2017-07-04T08:40:19.482Z,-2.7
2017-07-04T08:41:18.070Z,-2.5
2017-07-04T08:42:17.299Z,-2.6
2017-07-04T08:43:16.898Z,-2.5
2017-07-04T08:44:16.248Z,-2.5
2017-07-04T08:45:15.595Z,-2.4
2017-07-04T08:46:14.947Z,-2.5
2017-07-04T08:47:13.924Z,-2.5
2017-07-04T08:48:13.660Z,-2.5
2017-07-04T08:49:13.712Z,-2.4
2017-07-04T08:50:12.306Z,-2.1
2017-07-04T08:51:11.536Z,-2.1
2017-07-04T08:52:11.389Z,-2.1
2017-07-04T08:53:10.618Z,-2.2
2017-07-04T08:54:10.234Z,-2.3
2017-07-04T08:55:09.018Z,-2.5
2017-07-04T08:56:08.361Z,-2.5
2017-07-04T08:57:07.582Z,-2.5
2017-07-04T08:58:07.182Z,-2.5
2017-07-04T08:59:06.279Z,-2.6
2017-07-04T09:00:05.515Z,-2.7
2017-07-04T09:01:05.233Z,-2.5
2017-07-04T09:02:04.571Z,-2.6
2017-07-04T09:03:03.785Z,-2.6
2017-07-04T09:04:02.887Z,-2.5
2017-07-04T09:05:02.360Z,-2.6
2017-07-04T09:06:01.963Z,-2.5
2017-07-04T09:07:01.065Z,-2.6
2017-07-04T09:08:00.548Z,-2.5
2017-07-04T09:08:59.647Z,-2.7
2017-07-04T09:09:59.364Z,-2.7
2017-07-04T09:10:58.842Z,-2.6
2017-07-04T09:11:57.934Z,-2.6
2017-07-04T09:12:57.145Z,-2.6
2017-07-04T09:13:56.494Z,-2.6
2017-07-04T09:14:56.348Z,-2.5
2017-07-04T09:15:55.568Z,-2.4
2017-07-04T09:16:54.929Z,-2.3
2017-07-04T09:17:53.900Z,-2.3
2017-07-04T09:18:53.504Z,-2.4
2017-07-04T09:19:52.854Z,-2.4
2017-07-04T09:20:52.079Z,-2.5
2017-07-04T09:21:51.302Z,-2.5
2017-07-04T09:22:50.920Z,-2.2
2017-07-04T09:23:50.146Z,-2.1
2017-07-04T09:24:49.764Z,-2.2
2017-07-04T09:26:48.509Z,-2.4
2017-07-04T09:28:46.998Z,-2.3
2017-07-04T09:29:46.229Z,-2.4
2017-07-04T09:31:45.479Z,-2.4
2017-07-04T09:32:44.565Z,-2.3
2017-07-04T09:33:44.031Z,-2.3
2017-07-04T09:34:43.381Z,-2.3
2017-07-04T09:35:42.611Z,-2.3
2017-07-04T09:36:41.715Z,-2.3
2017-07-04T09:37:40.886Z,-2.4
2017-07-04T09:38:40.616Z,-2.4
2017-07-04T09:39:40.284Z,-2.5
2017-07-04T09:40:39.383Z,-2.4
2017-07-04T09:41:38.730Z,-2.3
2017-07-04T09:42:37.950Z,-2.5
2017-07-04T09:43:37.697Z,-2.5
2017-07-04T09:44:36.417Z,-2.6
2017-07-04T09:45:36.144Z,-2.6
2017-07-04T09:46:35.502Z,-2.6
2017-07-04T09:47:34.980Z,-2.3
2017-07-04T09:48:34.066Z,-2.2
2017-07-04T09:49:33.722Z,-2.2
2017-07-04T09:50:33.093Z,-2
2017-07-04T09:51:32.568Z,-1.8
2017-07-04T09:52:31.790Z,-1.9
2017-07-04T09:53:31.266Z,-1.9
2017-07-04T09:54:30.743Z,-2.1
2017-07-04T09:55:29.409Z,-2.2
2017-07-04T09:56:29.014Z,-2.2
2017-07-04T09:57:28.750Z,-2.2
2017-07-04T09:59:26.998Z,-2
2017-07-04T10:00:26.602Z,-1.8
2017-07-04T10:01:25.708Z,-1.7
2017-07-04T10:02:25.318Z,-1.9
2017-07-04T10:03:24.660Z,-1.9
2017-07-04T10:04:24.131Z,-2
2017-07-04T10:05:23.486Z,-2.2
2017-07-04T10:06:22.705Z,-2.2
2017-07-04T10:07:21.926Z,-2.2
2017-07-04T10:08:21.653Z,-2.1
2017-07-04T10:09:21.015Z,-1.9
2017-07-04T10:09:51.169Z,-1.9
2017-07-04T10:10:21.709Z,-1.7
2017-07-04T10:11:19.557Z,-1.7
2017-07-04T10:12:19.406Z,-1.6
2017-07-04T10:13:18.624Z,-1.6
2017-07-04T10:14:18.098Z,-1.7
2017-07-04T10:15:17.325Z,-2
2017-07-04T10:16:16.862Z,-2
2017-07-04T10:17:15.940Z,-2.1
2017-07-04T10:18:15.411Z,-2.2
2017-07-04T10:19:14.518Z,-2.2
2017-07-04T10:20:14.367Z,-2.1
2017-07-04T10:21:13.766Z,-2.1
2017-07-04T10:22:13.558Z,-2.2
2017-07-04T10:23:12.156Z,-2.2
2017-07-04T10:24:11.634Z,-2.3
2017-07-04T10:25:10.730Z,-2.1
2017-07-04T10:26:10.217Z,-2
2017-07-04T10:27:09.695Z,-2
2017-07-04T10:28:09.251Z,-2
2017-07-04T10:29:08.727Z,-2
2017-07-04T10:30:08.336Z,-2.1
2017-07-04T10:31:07.170Z,-2.2
2017-07-04T10:32:06.377Z,-2
2017-07-04T10:33:06.095Z,-1.9
2017-07-04T10:34:05.443Z,-1.8
2017-07-04T10:35:04.666Z,-1.7
2017-07-04T10:36:04.127Z,-1.7
2017-07-04T10:37:03.346Z,-1.6
2017-07-04T10:38:03.210Z,-1.7
2017-07-04T10:39:02.423Z,-1.9
2017-07-04T10:40:01.640Z,-1.8
2017-07-04T10:41:00.742Z,-1.6
2017-07-04T10:42:00.346Z,-1.5
2017-07-04T10:42:59.886Z,-1.5
2017-07-04T10:43:59.095Z,-1.5
2017-07-04T10:45:58.215Z,-1.6
2017-07-04T10:46:57.310Z,-1.6
2017-07-04T10:47:57.286Z,-1.4
2017-07-04T10:48:56.073Z,-1.5
2017-07-04T10:49:55.296Z,-1.6
2017-07-04T10:51:54.786Z,-1.6
2017-07-04T10:52:54.146Z,-1.5
2017-07-04T10:53:53.130Z,-1.7
2017-07-04T10:54:52.492Z,-1.2
2017-07-04T10:55:51.824Z,-1.2
2017-07-04T10:56:50.904Z,-1.2
2017-07-04T10:57:50.507Z,-1
2017-07-04T10:58:50.111Z,-1
2017-07-04T10:59:49.461Z,-1
2017-07-04T11:00:49.052Z,-0.9
2017-07-04T11:01:48.150Z,-0.6
2017-07-04T11:02:18.935Z,-0.6
2017-07-04T11:02:48.846Z,-0.7
2017-07-04T11:03:19.375Z,-0.7
2017-07-04T11:03:49.911Z,-0.8
2017-07-04T11:04:20.324Z,-0.8
2017-07-04T11:04:51.566Z,-0.9
2017-07-04T11:05:21.085Z,-0.9
2017-07-04T11:06:45.353Z,-1.1
2017-07-04T11:07:44.950Z,-1.1
2017-07-04T11:08:44.295Z,-1.2
2017-07-04T11:09:43.911Z,-1.1
2017-07-04T11:10:43.139Z,-1
2017-07-04T11:11:42.110Z,-1.1
2017-07-04T11:12:41.837Z,-1
2017-07-04T11:14:40.841Z,-0.7
2017-07-04T11:15:40.183Z,-0.7
2017-07-04T11:16:39.420Z,-1
2017-07-04T11:17:38.515Z,-0.9
2017-07-04T11:18:38.369Z,-1.1
2017-07-04T11:19:37.587Z,-1.3
2017-07-04T11:20:37.438Z,-1.1
2017-07-04T11:21:37.237Z,-1
2017-07-04T11:22:35.973Z,-1
2017-07-04T11:23:35.198Z,-1
2017-07-04T11:24:35.070Z,-1.1
2017-07-04T11:25:34.290Z,-0.9
2017-07-04T11:26:33.512Z,-0.9
2017-07-04T11:27:33.234Z,-0.7
2017-07-04T11:28:32.262Z,-0.8
2017-07-04T11:29:32.438Z,-0.9
2017-07-04T11:30:31.552Z,-0.9
2017-07-04T11:31:30.821Z,-1.1
2017-07-04T11:32:29.786Z,-1.4
2017-07-04T11:33:30.076Z,-1.5
2017-07-04T11:34:28.679Z,-1.5
2017-07-04T11:35:28.276Z,-1.6
2017-07-04T11:35:59.184Z,-1.6
2017-07-04T11:36:29.209Z,-1.7
2017-07-04T11:37:27.547Z,-1.7
2017-07-04T11:38:26.574Z,-1.7
2017-07-04T11:40:25.691Z,-1.6
2017-07-04T11:41:24.788Z,-1.5
2017-07-04T11:42:24.141Z,-1.5
2017-07-04T11:43:24.124Z,-1.5
2017-07-04T11:44:23.468Z,-1.5
2017-07-04T11:45:23.124Z,-1.5
2017-07-04T11:46:21.834Z,-1.4
2017-07-04T11:47:21.572Z,-1.3
2017-07-04T11:48:20.792Z,-1.4
2017-07-04T11:49:20.143Z,-1.2
2017-07-04T11:50:19.378Z,-1.2
2017-07-04T11:51:18.983Z,-0.8
2017-07-04T11:52:17.958Z,-0.6
2017-07-04T11:53:17.620Z,-0.6
2017-07-04T11:54:17.632Z,-0.2
2017-07-04T11:55:16.725Z,0
2017-07-04T11:56:15.947Z,0
2017-07-04T11:57:16.500Z,0.1
2017-07-04T11:58:14.994Z,0.2
2017-07-04T11:59:14.332Z,0.1
2017-07-04T12:00:13.302Z,0.1
2017-07-04T12:02:12.543Z,0
2017-07-04T12:03:12.396Z,0.3
2017-07-04T12:04:11.377Z,0.5
2017-07-04T12:05:10.845Z,0.5
2017-07-04T12:06:10.064Z,0.8
2017-07-04T12:07:09.655Z,0.8
2017-07-04T12:08:09.378Z,0.7
2017-07-04T12:09:08.731Z,0.7
2017-07-04T12:10:07.827Z,0
2017-07-04T12:11:07.677Z,0
2017-07-04T12:12:07.038Z,0.2
2017-07-04T12:13:06.394Z,0.1
2017-07-04T12:14:05.629Z,0.3
2017-07-04T12:15:05.365Z,0.5
2017-07-04T12:17:04.107Z,0.6
2017-07-04T12:18:03.456Z,0.6
2017-07-04T12:19:02.792Z,0.3
2017-07-04T12:20:02.408Z,0.1
2017-07-04T12:21:01.757Z,0.3
2017-07-04T12:22:00.975Z,0.1
2017-07-04T12:23:00.448Z,0
2017-07-04T12:24:00.052Z,0.1
2017-07-04T12:24:59.033Z,0.3
2017-07-04T12:25:58.760Z,0.2
2017-07-04T12:26:58.311Z,0.1
2017-07-04T12:27:58.241Z,0
2017-07-04T12:28:56.968Z,-0.2
2017-07-04T12:29:56.447Z,-0.2
2017-07-04T12:30:55.533Z,0.3
2017-07-04T12:31:25.935Z,0.3
2017-07-04T12:31:56.744Z,0.7
2017-07-04T12:32:26.651Z,0.7
2017-07-04T12:32:57.434Z,0.4
2017-07-04T12:33:27.209Z,0.4
2017-07-04T12:34:53.749Z,0.8
2017-07-04T12:35:52.970Z,1
2017-07-04T12:36:53.123Z,1.2
2017-07-04T12:37:51.976Z,1.5
2017-07-04T12:38:51.694Z,1.7
2017-07-04T12:39:50.927Z,1.6
2017-07-04T12:40:50.147Z,1.3
2017-07-04T12:41:49.880Z,1.2
2017-07-04T12:42:49.108Z,1
2017-07-04T12:43:48.714Z,0.6
2017-07-04T12:44:48.442Z,0.1
2017-07-04T12:45:47.657Z,0
2017-07-04T12:46:46.742Z,-0.2
2017-07-04T12:47:46.495Z,-0.3
2017-07-04T12:48:45.973Z,-0.4
2017-07-04T12:49:45.639Z,-0.4
2017-07-04T12:50:45.243Z,-0.1
2017-07-04T12:51:44.479Z,0.2
2017-07-04T12:52:43.707Z,0.7
2017-07-04T12:53:43.187Z,1
2017-07-04T12:54:42.538Z,0.8
2017-07-04T12:56:41.646Z,0.8
2017-07-04T12:57:40.764Z,0.9
2017-07-04T12:58:40.372Z,0.8
2017-07-04T12:59:39.839Z,1
2017-07-04T13:00:39.565Z,0.9
2017-07-04T13:01:38.795Z,1
2017-07-04T13:03:37.477Z,0
2017-07-04T13:04:37.443Z,-0.1
2017-07-04T13:05:36.536Z,-0.3
2017-07-04T13:06:36.767Z,-0.4
2017-07-04T13:07:35.349Z,-0.3
2017-07-04T13:08:34.954Z,-0.5
2017-07-04T13:09:34.809Z,-0.4
2017-07-04T13:10:33.781Z,-0.4
2017-07-04T13:11:33.395Z,-0.2
2017-07-04T13:12:32.737Z,-0.2
2017-07-04T13:13:03.264Z,-0.2
2017-07-04T13:13:34.175Z,0.2
2017-07-04T13:14:04.213Z,0.2
2017-07-04T13:14:34.748Z,0.3
2017-07-04T13:15:05.544Z,0.3
2017-07-04T13:15:36.220Z,0.7
2017-07-04T13:16:30.284Z,0.9
2017-07-04T13:17:30.269Z,0.8
2017-07-04T13:19:28.957Z,0.9
2017-07-04T13:20:28.304Z,0.9
2017-07-04T13:21:27.783Z,0.5
2017-07-04T13:22:27.003Z,0.2